createdAt,value
2019-03-09T00:00:34.661Z,40.15
2019-03-09T00:03:04.323Z,40.11
2019-03-09T00:05:33.944Z,40.18
2019-03-09T00:08:03.653Z,40.11
2019-03-09T00:10:33.263Z,40.10
2019-03-09T00:13:02.953Z,40.05
2019-03-09T00:15:32.620Z,40.10
2019-03-09T00:18:02.279Z,40.14
2019-03-09T00:20:31.992Z,40.10
2019-03-09T00:23:26.515Z,40.11
2019-03-09T00:26:27.063Z,40.16
2019-03-09T00:29:15.541Z,40.18
2019-03-09T00:31:50.298Z,40.22
2019-03-09T00:34:19.916Z,40.27
2019-03-09T00:36:49.639Z,40.28
2019-03-09T00:39:19.326Z,40.35
2019-03-09T00:41:48.952Z,40.27
2019-03-09T00:44:18.649Z,40.30
2019-03-09T00:46:48.265Z,40.37
2019-03-09T00:49:17.974Z,40.36
2019-03-09T00:51:47.585Z,40.38
2019-03-09T00:54:17.340Z,40.41
2019-03-09T00:56:46.990Z,40.42
2019-03-09T00:59:16.624Z,40.44
2019-03-09T01:01:46.315Z,40.50
2019-03-09T01:04:15.935Z,40.50
2019-03-09T01:06:45.677Z,40.51
2019-03-09T01:09:15.247Z,40.47
2019-03-09T01:11:44.957Z,40.55
2019-03-09T01:14:14.669Z,40.53
2019-03-09T01:16:44.372Z,40.47
2019-03-09T01:19:14.091Z,40.45
2019-03-09T01:21:43.707Z,40.40
2019-03-09T01:24:13.326Z,40.44
2019-03-09T01:26:42.938Z,40.51
2019-03-09T01:29:12.628Z,40.51
2019-03-09T01:31:42.260Z,40.49
2019-03-09T01:34:11.948Z,40.51
2019-03-09T01:36:41.654Z,40.51
2019-03-09T01:39:11.283Z,40.50
2019-03-09T01:41:40.968Z,40.53
2019-03-09T01:44:10.516Z,40.55
2019-03-09T01:46:40.095Z,40.51
2019-03-09T01:49:09.814Z,40.46
2019-03-09T01:51:39.497Z,40.26
2019-03-09T01:54:09.230Z,40.33
2019-03-09T01:56:38.858Z,40.32
2019-03-09T01:59:08.543Z,40.38
2019-03-09T02:01:38.159Z,40.24
2019-03-09T02:04:07.866Z,40.37
2019-03-09T02:06:37.484Z,40.35
2019-03-09T02:09:07.601Z,40.42
2019-03-09T02:11:37.208Z,40.50
2019-03-09T02:14:06.912Z,40.37
2019-03-09T02:16:36.527Z,40.51
2019-03-09T02:19:06.227Z,40.40
2019-03-09T02:21:35.932Z,40.59
2019-03-09T02:24:05.645Z,40.62
2019-03-09T02:26:35.362Z,40.61
2019-03-09T02:29:04.992Z,40.54
2019-03-09T02:31:34.579Z,40.51
2019-03-09T02:34:04.214Z,40.71
2019-03-09T02:36:33.898Z,40.74
2019-03-09T02:39:25.206Z,40.69
2019-03-09T02:41:54.829Z,40.75
2019-03-09T02:44:24.539Z,40.91
2019-03-09T02:46:54.253Z,40.80
2019-03-09T02:49:23.955Z,40.77
2019-03-09T02:51:53.580Z,40.81
2019-03-09T02:54:23.277Z,40.72
2019-03-09T02:56:52.897Z,40.74
2019-03-09T02:59:22.596Z,40.69
2019-03-09T03:02:11.073Z,40.74
2019-03-09T03:04:40.761Z,40.53
2019-03-09T03:07:10.382Z,40.62
2019-03-09T03:09:40.069Z,40.59
2019-03-09T03:12:09.701Z,40.52
2019-03-09T03:14:39.392Z,40.52
2019-03-09T03:17:09.107Z,40.49
2019-03-09T03:19:38.817Z,40.46
2019-03-09T03:22:08.538Z,40.40
2019-03-09T03:24:38.148Z,40.39
2019-03-09T03:27:07.857Z,40.48
2019-03-09T03:29:37.471Z,40.58
2019-03-09T03:32:07.167Z,40.50
2019-03-09T03:34:36.787Z,40.55
2019-03-09T03:37:06.493Z,40.55
2019-03-09T03:39:36.199Z,40.44
2019-03-09T03:42:05.916Z,40.50
2019-03-09T03:44:44.799Z,40.53
2019-03-09T03:47:15.912Z,40.59
2019-03-09T03:49:45.652Z,40.53
2019-03-09T03:52:15.216Z,40.51
2019-03-09T03:54:44.908Z,40.48
2019-03-09T03:57:14.537Z,40.47
2019-03-09T03:59:44.221Z,40.37
2019-03-09T04:02:13.942Z,40.39
2019-03-09T04:04:43.557Z,40.42
2019-03-09T04:07:13.274Z,40.44
2019-03-09T04:09:42.884Z,40.47
2019-03-09T04:12:12.579Z,40.51
2019-03-09T04:14:42.213Z,40.41
2019-03-09T04:17:11.899Z,40.52
2019-03-09T04:19:41.611Z,40.65
2019-03-09T04:22:11.347Z,40.60
2019-03-09T04:24:41.031Z,40.70
2019-03-09T04:27:10.700Z,40.64
2019-03-09T04:29:40.347Z,40.63
2019-03-09T04:32:09.979Z,40.71
2019-03-09T04:34:39.668Z,40.68
2019-03-09T04:37:09.293Z,40.81
2019-03-09T04:39:38.994Z,40.97
2019-03-09T04:42:08.779Z,40.98
2019-03-09T04:44:38.510Z,41.01
2019-03-09T04:47:08.123Z,40.99
2019-03-09T04:49:37.746Z,41.10
2019-03-09T04:52:07.439Z,41.09
2019-03-09T04:54:37.067Z,39.62
2019-03-09T04:57:06.754Z,40.40
2019-03-09T04:59:36.635Z,37.67
2019-03-09T05:02:06.296Z,39.40
2019-03-09T05:04:52.459Z,39.73
2019-03-09T05:07:36.935Z,40.09
2019-03-09T05:10:13.368Z,40.46
2019-03-09T05:12:42.985Z,40.43
2019-03-09T05:15:13.388Z,40.73
2019-03-09T05:17:44.188Z,40.73
2019-03-09T05:20:13.886Z,40.60
2019-03-09T05:22:43.506Z,41.16
2019-03-09T05:25:13.421Z,41.45
2019-03-09T05:27:43.078Z,41.04
2019-03-09T05:30:13.904Z,35.66
2019-03-09T05:32:43.564Z,34.27
2019-03-09T05:35:13.190Z,33.90
2019-03-09T05:37:43.534Z,32.85
2019-03-09T05:40:13.556Z,32.91
2019-03-09T05:42:43.333Z,32.78
2019-03-09T05:45:13.299Z,32.76
2019-03-09T05:47:43.268Z,32.11
2019-03-09T05:50:13.967Z,31.79
2019-03-09T05:52:43.523Z,31.78
2019-03-09T05:55:17.893Z,31.99
2019-03-09T05:57:47.466Z,32.01
2019-03-09T06:00:19.462Z,32.13
2019-03-09T06:02:49.551Z,31.86
2019-03-09T06:05:30.570Z,31.96
2019-03-09T06:08:00.245Z,31.77
2019-03-09T06:10:29.926Z,32.13
2019-03-09T06:12:59.625Z,31.87
2019-03-09T06:15:30.558Z,32.48
2019-03-09T06:18:00.462Z,34.18
2019-03-09T06:20:30.148Z,34.73
2019-03-09T06:22:59.812Z,34.38
2019-03-09T06:25:30.816Z,33.85
2019-03-09T06:28:00.640Z,36.11
2019-03-09T06:30:30.549Z,35.65
2019-03-09T06:33:22.210Z,35.29
2019-03-09T06:36:30.519Z,35.10
2019-03-09T06:39:20.921Z,35.21
2019-03-09T06:42:10.800Z,35.56
2019-03-09T06:44:40.436Z,35.75
2019-03-09T06:47:10.121Z,35.81
2019-03-09T06:49:39.756Z,35.86
2019-03-09T06:52:09.432Z,35.95
2019-03-09T06:54:39.072Z,35.93
2019-03-09T06:57:13.919Z,35.96
2019-03-09T06:59:40.236Z,36.04
2019-03-09T07:02:10.425Z,36.02
2019-03-09T07:04:40.060Z,36.06
2019-03-09T07:07:09.745Z,36.06
2019-03-09T07:09:39.370Z,36.11
2019-03-09T07:12:09.059Z,36.11
2019-03-09T07:15:13.799Z,36.19
2019-03-09T07:17:43.419Z,36.18
2019-03-09T07:20:13.233Z,36.30
2019-03-09T07:22:42.857Z,36.31
2019-03-09T07:25:12.550Z,36.32
2019-03-09T07:27:42.173Z,36.36
2019-03-09T07:30:14.946Z,36.36
2019-03-09T07:32:44.532Z,36.35
2019-03-09T07:35:14.175Z,36.42
2019-03-09T07:37:43.856Z,36.51
2019-03-09T07:40:13.508Z,36.47
2019-03-09T07:42:43.171Z,36.46
2019-03-09T07:45:13.545Z,36.54
2019-03-09T07:47:43.206Z,36.54
2019-03-09T07:50:13.105Z,36.52
2019-03-09T07:52:42.841Z,36.58
2019-03-09T07:55:14.041Z,36.57
2019-03-09T07:57:43.704Z,36.58
2019-03-09T08:00:15.100Z,36.58
2019-03-09T08:02:44.758Z,36.60
2019-03-09T08:05:14.407Z,36.63
2019-03-09T08:07:44.161Z,36.56
2019-03-09T08:10:18.335Z,36.56
2019-03-09T08:12:48.005Z,36.54
2019-03-09T08:15:18.275Z,36.59
2019-03-09T08:17:55.867Z,36.52
2019-03-09T08:20:25.677Z,36.56
2019-03-09T08:22:55.345Z,36.54
2019-03-09T08:25:25.073Z,36.55
2019-03-09T08:27:54.794Z,36.56
2019-03-09T08:30:24.627Z,36.55
2019-03-09T08:32:54.297Z,36.53
2019-03-09T08:35:23.924Z,36.55
2019-03-09T08:37:53.933Z,36.58
2019-03-09T08:40:23.633Z,36.80
2019-03-09T08:42:53.351Z,36.70
2019-03-09T08:45:22.983Z,36.81
2019-03-09T08:47:53.154Z,36.84
2019-03-09T08:50:23.048Z,36.97
2019-03-09T08:52:52.660Z,37.18
2019-03-09T08:55:22.324Z,37.46
2019-03-09T08:57:52.059Z,37.34
2019-03-09T09:00:26.693Z,37.34
2019-03-09T09:02:56.280Z,36.87
2019-03-09T09:05:25.974Z,36.50
2019-03-09T09:07:55.686Z,36.39
2019-03-09T09:10:25.319Z,36.57
2019-03-09T09:12:54.994Z,36.26
2019-03-09T09:15:24.627Z,36.38
2019-03-09T09:17:54.311Z,36.27
2019-03-09T09:20:24.160Z,36.24
2019-03-09T09:22:53.836Z,36.08
2019-03-09T09:25:23.483Z,35.81
2019-03-09T09:27:53.155Z,35.84
2019-03-09T09:30:24.862Z,35.63
2019-03-09T09:32:54.565Z,35.69
2019-03-09T09:35:24.151Z,35.55
2019-03-09T09:37:54.045Z,35.60
2019-03-09T09:40:23.926Z,35.45
2019-03-09T09:42:53.569Z,35.34
2019-03-09T09:45:23.200Z,35.59
2019-03-09T09:47:52.890Z,35.28
2019-03-09T09:50:22.603Z,35.11
2019-03-09T09:52:52.310Z,35.09
2019-03-09T09:55:22.034Z,35.29
2019-03-09T09:57:51.663Z,35.29
2019-03-09T10:00:23.150Z,35.13
2019-03-09T10:02:52.904Z,35.07
2019-03-09T10:05:22.607Z,34.99
2019-03-09T10:07:52.353Z,35.11
2019-03-09T10:10:22.080Z,35.07
2019-03-09T10:12:51.654Z,35.14
2019-03-09T10:15:23.228Z,35.37
2019-03-09T10:17:52.827Z,35.64
2019-03-09T10:20:22.463Z,35.90
2019-03-09T10:22:52.041Z,35.99
2019-03-09T10:25:21.726Z,36.13
2019-03-09T10:27:51.445Z,36.23
2019-03-09T10:30:21.918Z,36.25
2019-03-09T10:32:51.578Z,36.34
2019-03-09T10:35:21.307Z,36.41
2019-03-09T10:37:50.921Z,36.44
2019-03-09T10:40:21.028Z,36.31
2019-03-09T10:42:50.638Z,36.20
2019-03-09T10:45:20.242Z,36.36
2019-03-09T10:47:49.866Z,36.59
2019-03-09T10:50:19.581Z,36.55
2019-03-09T10:52:49.239Z,36.46
2019-03-09T10:55:20.373Z,36.82
2019-03-09T10:57:50.192Z,36.80
2019-03-09T11:00:27.810Z,36.74
2019-03-09T11:02:57.460Z,37.05
2019-03-09T11:05:27.138Z,36.76
2019-03-09T11:07:56.847Z,36.41
2019-03-09T11:10:26.593Z,36.32
2019-03-09T11:12:56.273Z,36.99
2019-03-09T11:15:25.949Z,37.12
2019-03-09T11:17:55.587Z,37.11
2019-03-09T11:20:25.219Z,37.08
2019-03-09T11:22:54.918Z,37.01
2019-03-09T11:25:24.674Z,36.90
2019-03-09T11:27:54.330Z,35.68
2019-03-09T11:30:25.328Z,34.92
2019-03-09T11:32:54.914Z,35.23
2019-03-09T11:35:24.590Z,34.44
2019-03-09T11:37:54.306Z,35.29
2019-03-09T11:40:23.942Z,35.27
2019-03-09T11:42:53.635Z,35.30
2019-03-09T11:45:23.278Z,35.01
2019-03-09T11:47:52.948Z,35.64
2019-03-09T11:50:22.494Z,35.40
2019-03-09T11:52:52.104Z,33.31
2019-03-09T11:55:21.769Z,33.37
2019-03-09T11:57:51.399Z,34.93
2019-03-09T12:00:25.118Z,35.04
2019-03-09T12:02:54.793Z,34.64
2019-03-09T12:05:24.437Z,34.15
2019-03-09T12:07:54.108Z,34.39
2019-03-09T12:10:23.734Z,34.33
2019-03-09T12:12:53.440Z,34.02
2019-03-09T12:15:23.151Z,33.99
2019-03-09T12:17:52.865Z,33.90
2019-03-09T12:20:23.779Z,33.81
2019-03-09T12:23:01.057Z,33.75
2019-03-09T12:25:24.862Z,33.64
2019-03-09T12:27:54.480Z,33.51
2019-03-09T12:30:24.180Z,33.41
2019-03-09T12:32:53.882Z,33.09
2019-03-09T12:35:23.601Z,33.20
2019-03-09T12:37:53.375Z,33.35
2019-03-09T12:40:23.123Z,33.31
2019-03-09T12:42:52.829Z,33.37
2019-03-09T12:45:22.468Z,33.71
2019-03-09T12:47:52.160Z,33.76
2019-03-09T12:50:21.785Z,33.75
2019-03-09T12:52:51.461Z,32.19
2019-03-09T12:55:21.207Z,32.86
2019-03-09T12:57:50.898Z,32.75
2019-03-09T13:00:20.667Z,32.71
2019-03-09T13:02:50.385Z,31.84
2019-03-09T13:05:20.119Z,30.10
2019-03-09T13:07:49.751Z,31.08
2019-03-09T13:10:19.550Z,30.09
2019-03-09T13:12:49.162Z,31.48
2019-03-09T13:15:18.870Z,30.15
2019-03-09T13:17:48.605Z,31.46
2019-03-09T13:20:18.296Z,31.14
2019-03-09T13:22:47.909Z,29.80
2019-03-09T13:25:17.630Z,29.53
2019-03-09T13:27:47.317Z,31.01
2019-03-09T13:30:18.764Z,31.24
2019-03-09T13:32:48.371Z,31.72
2019-03-09T13:35:17.995Z,31.51
2019-03-09T13:37:47.700Z,31.90
2019-03-09T13:40:17.238Z,31.82
2019-03-09T13:42:46.911Z,31.73
2019-03-09T13:45:16.534Z,32.32
2019-03-09T13:47:46.261Z,32.69
2019-03-09T13:50:15.869Z,33.09
2019-03-09T13:52:45.471Z,33.22
2019-03-09T13:55:15.159Z,33.02
2019-03-09T13:57:44.796Z,32.75
2019-03-09T14:00:15.244Z,32.77
2019-03-09T14:02:44.913Z,32.58
2019-03-09T14:05:14.659Z,32.54
2019-03-09T14:07:44.332Z,32.54
2019-03-09T14:10:14.147Z,32.51
2019-03-09T14:12:43.862Z,32.51
2019-03-09T14:15:14.427Z,32.45
2019-03-09T14:17:44.097Z,32.47
2019-03-09T14:20:13.728Z,32.48
2019-03-09T14:22:43.429Z,32.31
2019-03-09T14:25:13.121Z,32.32
2019-03-09T14:27:42.840Z,32.17
2019-03-09T14:30:13.945Z,32.06
2019-03-09T14:32:43.596Z,31.94
2019-03-09T14:35:13.292Z,31.70
2019-03-09T14:37:43.019Z,31.76
2019-03-09T14:40:12.843Z,31.76
2019-03-09T14:42:42.535Z,31.69
2019-03-09T14:45:14.746Z,31.97
2019-03-09T14:47:44.446Z,32.10
2019-03-09T14:50:14.023Z,32.68
2019-03-09T14:52:43.753Z,32.66
2019-03-09T14:55:13.373Z,32.67
2019-03-09T14:57:43.065Z,32.59
2019-03-09T15:00:15.626Z,32.25
2019-03-09T15:02:45.301Z,32.18
2019-03-09T15:05:14.945Z,32.66
2019-03-09T15:07:44.684Z,32.54
2019-03-09T15:10:14.397Z,32.52
2019-03-09T15:12:43.994Z,32.64
2019-03-09T15:15:13.896Z,32.74
2019-03-09T15:17:43.630Z,32.72
2019-03-09T15:20:13.377Z,32.77
2019-03-09T15:22:42.939Z,32.86
2019-03-09T15:25:13.054Z,32.82
2019-03-09T15:27:42.654Z,33.07
2019-03-09T15:30:13.743Z,33.36
2019-03-09T15:32:43.405Z,33.40
2019-03-09T15:35:13.049Z,33.67
2019-03-09T15:37:42.736Z,33.90
2019-03-09T15:40:12.590Z,34.01
2019-03-09T15:42:42.250Z,34.38
2019-03-09T15:45:12.276Z,34.46
2019-03-09T15:47:41.989Z,34.68
2019-03-09T15:50:12.351Z,34.73
2019-03-09T15:52:41.937Z,34.90
2019-03-09T15:55:11.620Z,35.06
2019-03-09T15:57:41.257Z,34.98
2019-03-09T16:00:14.068Z,35.09
2019-03-09T16:02:43.839Z,35.10
2019-03-09T16:05:13.541Z,35.15
2019-03-09T16:07:43.283Z,34.98
2019-03-09T16:10:13.927Z,34.97
2019-03-09T16:12:43.702Z,35.14
2019-03-09T16:15:14.083Z,35.16
2019-03-09T16:17:43.840Z,35.19
2019-03-09T16:20:15.240Z,35.19
2019-03-09T16:22:44.914Z,35.09
2019-03-09T16:25:14.520Z,35.12
2019-03-09T16:27:44.233Z,35.43
2019-03-09T16:30:16.147Z,35.23
2019-03-09T16:32:45.797Z,35.28
2019-03-09T16:35:15.502Z,35.14
2019-03-09T16:37:45.200Z,35.57
2019-03-09T16:40:15.461Z,35.82
2019-03-09T16:42:45.051Z,36.40
2019-03-09T16:45:14.809Z,36.90
2019-03-09T16:47:44.385Z,37.19
2019-03-09T16:50:14.068Z,36.30
2019-03-09T16:52:43.745Z,36.07
2019-03-09T16:55:13.396Z,36.22
2019-03-09T16:57:43.219Z,37.43
2019-03-09T17:00:15.554Z,37.92
2019-03-09T17:02:45.353Z,38.60
2019-03-09T17:05:15.353Z,38.68
2019-03-09T17:07:45.031Z,38.48
2019-03-09T17:10:14.757Z,38.45
2019-03-09T17:12:44.446Z,38.44
2019-03-09T17:15:16.075Z,38.14
2019-03-09T17:17:45.851Z,38.70
2019-03-09T17:20:15.729Z,38.93
2019-03-09T17:22:45.382Z,39.31
2019-03-09T17:25:16.396Z,39.05
2019-03-09T17:27:46.011Z,38.78
2019-03-09T17:30:16.807Z,38.68
2019-03-09T17:32:46.760Z,38.68
2019-03-09T17:35:16.449Z,38.91
2019-03-09T17:37:46.162Z,38.90
2019-03-09T17:40:15.992Z,39.04
2019-03-09T17:42:45.821Z,38.89
2019-03-09T17:45:19.364Z,39.37
2019-03-09T17:47:49.057Z,39.26
2019-03-09T17:50:19.626Z,38.92
2019-03-09T17:52:49.345Z,38.98
2019-03-09T17:55:18.794Z,39.19
2019-03-09T17:57:48.557Z,39.07
2019-03-09T18:00:20.387Z,39.18
2019-03-09T18:02:49.946Z,39.12
2019-03-09T18:05:20.141Z,39.48
2019-03-09T18:07:50.031Z,39.13
2019-03-09T18:10:23.258Z,39.39
2019-03-09T18:12:52.892Z,39.22
2019-03-09T18:15:22.619Z,39.55
2019-03-09T18:17:52.195Z,39.46
2019-03-09T18:20:21.938Z,39.41
2019-03-09T18:22:51.542Z,39.40
2019-03-09T18:25:21.215Z,39.60
2019-03-09T18:27:50.851Z,39.38
2019-03-09T18:30:20.531Z,39.31
2019-03-09T18:32:50.285Z,39.42
2019-03-09T18:35:19.871Z,39.45
2019-03-09T18:37:49.559Z,39.55
2019-03-09T18:40:19.298Z,39.74
2019-03-09T18:42:48.877Z,40.15
2019-03-09T18:45:18.603Z,39.97
2019-03-09T18:47:48.350Z,40.01
2019-03-09T18:50:17.923Z,40.07
2019-03-09T18:52:47.550Z,40.07
2019-03-09T18:55:17.234Z,39.62
2019-03-09T18:57:46.859Z,39.36
2019-03-09T19:00:17.591Z,39.44
2019-03-09T19:02:47.387Z,39.64
2019-03-09T19:05:17.017Z,39.54
2019-03-09T19:07:46.708Z,38.21
2019-03-09T19:10:16.483Z,38.44
2019-03-09T19:12:46.235Z,38.70
2019-03-09T19:15:15.949Z,38.74
2019-03-09T19:17:45.658Z,38.95
2019-03-09T19:20:15.368Z,39.05
2019-03-09T19:22:45.013Z,39.01
2019-03-09T19:25:14.692Z,39.09
2019-03-09T19:27:44.306Z,39.07
2019-03-09T19:30:15.296Z,39.13
2019-03-09T19:32:45.063Z,38.85
2019-03-09T19:35:14.768Z,38.84
2019-03-09T19:37:44.471Z,38.88
2019-03-09T19:40:14.846Z,39.00
2019-03-09T19:42:44.485Z,38.99
2019-03-09T19:45:14.586Z,39.05
2019-03-09T19:47:44.303Z,39.03
2019-03-09T19:50:15.947Z,39.07
2019-03-09T19:52:45.533Z,39.05
2019-03-09T19:55:15.145Z,39.04
2019-03-09T19:57:44.805Z,39.20
2019-03-09T20:00:14.972Z,39.47
2019-03-09T20:02:44.622Z,39.65
2019-03-09T20:05:14.289Z,39.49
2019-03-09T20:07:43.978Z,39.64
2019-03-09T20:10:14.162Z,39.66
2019-03-09T20:12:43.574Z,39.69
2019-03-09T20:15:13.965Z,39.80
2019-03-09T20:17:45.766Z,39.91
2019-03-09T20:20:15.127Z,40.17
2019-03-09T20:22:44.846Z,39.59
2019-03-09T20:25:14.461Z,39.46
2019-03-09T20:27:44.156Z,39.34
2019-03-09T20:30:14.193Z,39.30
2019-03-09T20:32:43.885Z,39.32
2019-03-09T20:35:13.501Z,39.43
2019-03-09T20:37:43.261Z,39.40
2019-03-09T20:40:13.160Z,39.38
2019-03-09T20:42:42.831Z,39.32
2019-03-09T20:45:14.665Z,39.31
2019-03-09T20:47:44.609Z,39.34
2019-03-09T20:50:15.276Z,39.33
2019-03-09T20:52:44.958Z,39.35
2019-03-09T20:55:14.660Z,39.36
2019-03-09T20:57:44.410Z,39.39
2019-03-09T21:00:15.856Z,39.38
2019-03-09T21:02:45.531Z,39.35
2019-03-09T21:05:15.247Z,39.43
2019-03-09T21:07:44.957Z,39.38
2019-03-09T21:10:15.681Z,39.38
2019-03-09T21:13:13.680Z,39.40
2019-03-09T21:15:43.384Z,39.44
2019-03-09T21:18:13.002Z,39.47
2019-03-09T21:20:42.698Z,39.37
2019-03-09T21:23:12.314Z,39.44
2019-03-09T21:25:42.017Z,39.48
2019-03-09T21:28:11.631Z,39.54
2019-03-09T21:30:41.370Z,39.46
2019-03-09T21:33:11.037Z,39.56
2019-03-09T21:35:40.757Z,39.51
2019-03-09T21:38:10.470Z,39.56
2019-03-09T21:40:40.103Z,39.43
2019-03-09T21:43:09.781Z,39.43
2019-03-09T21:45:39.411Z,39.42
2019-03-09T21:48:09.106Z,39.46
2019-03-09T21:50:38.733Z,39.40
2019-03-09T21:53:08.480Z,39.48
2019-03-09T21:55:38.239Z,39.45
2019-03-09T21:58:07.946Z,39.45
2019-03-09T22:00:37.656Z,39.47
2019-03-09T22:03:07.278Z,39.49
2019-03-09T22:05:36.982Z,39.41
2019-03-09T22:08:06.629Z,39.37
2019-03-09T22:10:36.299Z,39.51
2019-03-09T22:13:05.918Z,39.42
2019-03-09T22:15:35.623Z,39.39
2019-03-09T22:18:05.323Z,39.43
2019-03-09T22:20:35.092Z,39.47
2019-03-09T22:23:04.746Z,39.31
2019-03-09T22:25:34.368Z,39.42
2019-03-09T22:28:03.997Z,39.48
2019-03-09T22:30:33.606Z,39.54
2019-03-09T22:33:04.691Z,39.40
2019-03-09T22:35:34.546Z,39.32
2019-03-09T22:38:04.252Z,39.28
2019-03-09T22:40:33.953Z,39.32
2019-03-09T22:43:03.674Z,39.31
2019-03-09T22:45:33.373Z,39.26
2019-03-09T22:48:03.054Z,39.18
2019-03-09T22:50:32.799Z,39.23
2019-03-09T22:53:02.425Z,39.19
2019-03-09T22:55:32.024Z,39.22
2019-03-09T22:58:01.638Z,39.23
2019-03-09T23:00:31.425Z,39.34
2019-03-09T23:03:01.047Z,39.32
2019-03-09T23:05:30.753Z,39.49
2019-03-09T23:08:00.468Z,39.50
2019-03-09T23:10:30.088Z,39.49
2019-03-09T23:12:59.794Z,39.57
2019-03-09T23:15:29.404Z,39.57
2019-03-09T23:17:59.110Z,39.57
2019-03-09T23:20:28.731Z,39.62
2019-03-09T23:22:58.429Z,39.56
2019-03-09T23:25:28.133Z,39.63
2019-03-09T23:27:57.759Z,39.52
2019-03-09T23:30:27.472Z,39.76
2019-03-09T23:32:57.093Z,39.77
2019-03-09T23:35:26.777Z,39.77
2019-03-09T23:37:56.390Z,39.86
2019-03-09T23:40:26.096Z,39.88
2019-03-09T23:42:55.809Z,39.87
2019-03-09T23:45:25.522Z,39.92
2019-03-09T23:47:55.227Z,40.04
2019-03-09T23:50:24.864Z,40.02
2019-03-09T23:52:54.541Z,39.96
2019-03-09T23:55:24.188Z,39.87
2019-03-09T23:57:53.963Z,40.02
